Dye Mountain (222, 637) Station Data

Red Flag Warning: No
Fire Weather Zone: 250
SDGE Region: Ramona
Lat/Lon: 33.069/-116.71

Observations

Time Wind Speed/Gust Temp(F) RH Fuel Moist Fuel Temp(F) Dewpt(F) Tmax(F) Tmin(F) Accum Precip 10-min Precip SL Press(mb)
6/22 4:50am 52 1 G 1 81° 20% - - 36° 82.2° 78.7° - - 1005.0
6/22 4:40am 63 1 G 2 80° 22% - - 38° 82.2° 78.7° - - 1005.0
6/22 4:30am 65 2 G 2 80° 22% - - 38° 82.2° 78.7° - - 1005.0
6/22 4:20am 62 1 G 2 80° 24% - - 40° 82.2° 78.7° - - 1005.0
6/22 4:10am 62 1 G 2 80° 23% - - 39° 82.2° 78.7° - - 1005.0
6/22 4:00am 53 2 G 3 80° 22% - - 38° 82.2° 78.7° - - 1005.0
6/22 3:50am 46 3 G 3 79° 24% - - 40° 82.2° 78.7° - - 1005.0
6/22 3:40am 40 2 G 3 80° 26% - - 42° 82.2° 79° - - 1005.0
6/22 3:30am 39 2 G 2 80° 28% - - 43° 82.2° 79° - - 1005.0
6/22 3:20am 46 2 G 2 80° 28% - - 44° 82.2° 79° - - 1005.0
6/22 3:10am 51 1 G 2 81° 28% - - 44° 82.2° 79° - - 1005.0
6/22 3:00am 59 2 G 2 80° 28% - - 44° 82.2° 79° - - 1005.0
6/22 2:50am 55 2 G 3 80° 29% - - 45° 82.2° 79° - - 1005.0
6/22 2:40am 47 2 G 2 80° 30% - - 45° 82.2° 79° - - 1005.0
6/22 2:30am 43 1 G 2 80° 29% - - 45° 82.2° 79° - - 1005.0
6/22 2:20am 40 1 G 1 80° 28% - - 44° 82.2° 79.3° - - 1005.0
6/22 2:10am 56 1 G 2 80° 28% - - 44° 82.2° 79.7° - - 1005.0
6/22 2:00am 57 1 G 2 80° 27% - - 43° 82.2° 79.7° - - 1005.0
6/22 1:50am 54 1 G 2 80° 28% - - 44° 82.2° 79.7° - - 1005.0
6/22 1:40am 47 1 G 2 80° 28% - - 44° 82.2° 79.7° - - 1005.0
6/22 1:30am 48 2 G 2 80° 27% - - 44° 82.2° 79.9° - - 1005.0
6/22 1:20am 36 1 G 2 80° 27% - - 44° 82.2° 80° - - 1005.0
6/22 1:10am 14 1 G 1 81° 27% - - 44° 82.2° 80.4° - - 1005.0
6/22 1:00am 25 2 G 2 81° 25% - - 42° 82.2° 80.5° - - 1005.0
6/22 12:50am 41 3 G 4 82° 24% - - 41° 82.2° 80.5° - - 1005.0
6/22 12:40am 36 3 G 4 82° 24% - - 41° 82.2° 80.5° - - 1005.0
6/22 12:30am 31 3 G 4 81° 25% - - 42° 82.1° 80.5° - - 1005.0
6/22 12:20am 33 3 G 3 81° 25% - - 42° 82.1° 81° - - 1005.0
6/22 12:10am 36 4 G 4 82° 25% - - 43° 82° 81.1° - - 1005.0
6/22 12:00am 34 4 G 4 81° 26% - - 43° 98.4° 79.7° - - 1005.0
6/21 11:50pm 29 3 G 4 82° 26% - - 44° 98.4° 79.7° - - 1005.0
6/21 11:40pm 353 2 G 2 83° 26% - - 45° 98.4° 79.7° - - 1005.0
6/21 11:30pm 18 2 G 3 82° 26% - - 44° 98.4° 79.7° - - 1005.0
6/21 11:20pm 23 2 G 3 82° 28% - - 46° 98.4° 79.7° - - 1005.0
6/21 11:10pm 23 3 G 3 82° 30% - - 47° 98.4° 79.7° - - 1006.0
6/21 11:00pm 31 3 G 4 81° 31% - - 48° 98.4° 79.7° - - 1006.0
6/21 10:50pm 39 3 G 4 82° 32% - - 49° 98.4° 79.7° - - 1005.0
6/21 10:40pm 44 3 G 4 83° 33% - - 50° 98.4° 79.7° - - 1005.0
6/21 10:30pm 48 2 G 2 83° 33% - - 50° 98.4° 79.7° - - 1005.0
6/21 10:20pm 59 2 G 2 82° 34% - - 51° 98.4° 79.7° - - 1005.0
6/21 10:10pm 51 3 G 4 82° 34% - - 51° 98.4° 79.7° - - 1005.0
6/21 10:00pm 47 4 G 5 81° 35% - - 51° 98.4° 79.7° - - 1005.0
6/21 9:50pm 39 5 G 6 81° 36% - - 51° 98.4° 79.7° - - 1005.0
6/21 9:40pm 40 4 G 6 82° 35% - - 52° 98.4° 79.7° - - 1005.0
6/21 9:30pm 38 5 G 5 81° 36% - - 52° 98.4° 79.7° - - 1005.0
6/21 9:20pm 41 5 G 6 80° 39% - - 53° 98.4° 79.7° - - 1005.0
6/21 9:10pm 44 6 G 7 80° 39% - - 53° 98.4° 79.7° - - 1005.0
6/21 9:00pm 45 5 G 6 81° 39% - - 53° 98.4° 79.7° - - 1005.0
6/21 8:50pm 44 5 G 6 81° 39% - - 53° 98.4° 79.7° - - 1005.0
6/21 8:40pm 40 5 G 6 81° 38% - - 53° 98.4° 79.7° - - 1005.0
6/21 8:30pm 43 4 G 5 81° 38% - - 53° 98.4° 79.7° - - 1005.0
6/21 8:20pm 40 4 G 4 82° 37% - - 54° 98.4° 79.7° - - 1005.0
6/21 8:10pm 39 3 G 4 83° 37% - - 54° 98.4° 79.7° - - 1005.0
6/21 8:00pm 25 1 G 2 84° 37% - - 55° 98.4° 79.7° - - 1004.0
6/21 7:50pm 348 1 G 2 83° 38% - - 55° 98.4° 79.7° - - 1005.0
6/21 7:40pm 309 2 G 3 84° 37% - - 55° 98.4° 79.7° - - 1004.0
6/21 7:30pm 284 2 G 4 85° 34% - - 53° 98.4° 79.7° - - 1004.0
6/21 7:20pm 275 3 G 4 85° 32% - - 52° 98.4° 79.7° - - 1004.0
6/21 7:10pm 246 3 G 5 86° 30% - - 51° 98.4° 79.7° - - 1004.0
6/21 7:00pm 257 4 G 6 87° 28% - - 50° 98.4° 79.7° - - 1004.0
6/21 6:50pm 243 3 G 6 88° 25% - - 48° 98.4° 79.7° - - 1004.0
6/21 6:40pm 236 3 G 5 88° 22% - - 45° 98.4° 79.7° - - 1004.0
6/21 6:30pm 256 3 G 5 89° 21% - - 43° 98.4° 79.7° - - 1003.0
6/21 6:20pm 262 5 G 8 89° 19% - - 41° 98.4° 79.7° - - 1004.0
6/21 6:10pm 262 7 G 11 88° 22% - - 45° 98.4° 79.7° - - 1004.0
6/21 6:00pm 269 8 G 11 88° 26% - - 49° 98.4° 79.7° - - 1004.0
6/21 5:50pm 257 7 G 11 88° 29% - - 52° 98.4° 79.7° - - 1004.0
6/21 5:40pm 262 9 G 13 88° 31% - - 53° 98.4° 79.7° - - 1004.0
6/21 5:30pm 252 8 G 13 90° 30% - - 54° 98.4° 79.7° - - 1003.0
6/21 5:20pm 248 6 G 11 90° 30% - - 54° 98.4° 79.7° - - 1003.0
6/21 5:10pm 236 6 G 10 90° 30% - - 54° 98.4° 79.7° - - 1003.0
6/21 5:00pm 219 5 G 10 90° 29% - - 53° 98.4° 79.7° - - 1003.0
6/21 4:50pm 239 6 G 10 91° 27% - - 53° 98.4° 79.7° - - 1003.0
6/21 4:40pm 259 9 G 14 91° 28% - - 53° 98.4° 79.7° - - 1003.0
6/21 4:30pm 252 9 G 14 91° 27% - - 53° 98.4° 79.7° - - 1003.0
6/21 4:20pm 252 8 G 14 91° 27% - - 53° 98.4° 79.7° - - 1003.0
6/21 4:10pm 256 9 G 15 93° 26% - - 52° 98.4° 79.7° - - 1003.0
6/21 4:00pm 242 7 G 12 93° 25% - - 52° 98.4° 79.7° - - 1003.0
6/21 3:50pm 248 7 G 12 94° 25% - - 53° 98.4° 79.7° - - 1003.0
6/21 3:40pm 233 6 G 11 94° 25% - - 52° 98.4° 79.7° - - 1003.0
6/21 3:30pm 240 8 G 14 94° 25% - - 53° 98.4° 79.7° - - 1003.0
6/21 3:20pm 238 6 G 13 95° 25% - - 54° 98.4° 79.7° - - 1003.0
6/21 3:10pm 249 7 G 14 95° 26% - - 54° 98.4° 79.7° - - 1003.0
6/21 3:00pm 254 9 G 14 94° 27% - - 55° 98.4° 79.7° - - 1004.0
6/21 2:50pm 240 8 G 13 94° 28% - - 55° 98.4° 79.7° - - 1004.0
6/21 2:40pm 246 8 G 15 95° 27% - - 56° 98.4° 79.7° - - 1004.0
6/21 2:30pm 258 12 G 17 94° 27% - - 54° 98.4° 79.7° - - 1004.0
6/21 2:20pm 248 10 G 15 95° 25% - - 54° 98.4° 79.7° - - 1004.0
6/21 2:10pm 252 9 G 15 95° 24% - - 52° 98.4° 79.7° - - 1004.0
6/21 2:00pm 262 12 G 17 95° 22% - - 51° 98.4° 79.7° - - 1004.0
6/21 1:50pm 253 9 G 17 96° 22% - - 50° 98.4° 79.7° - - 1004.0
6/21 1:40pm 230 7 G 15 95° 22% - - 51° 98.4° 79.7° - - 1004.0
6/21 1:30pm 242 8 G 13 95° 20% - - 48° 98.4° 79.7° - - 1004.0
6/21 1:20pm 224 7 G 14 95° 21% - - 48° 98.4° 79.7° - - 1004.0
6/21 1:10pm 236 7 G 14 96° 20% - - 48° 98.4° 79.7° - - 1004.0
6/21 1:00pm 241 7 G 14 96° 20% - - 48° 98.4° 79.7° - - 1004.0
6/21 12:50pm 226 7 G 12 95° 19% - - 47° 98.4° 79.7° - - 1004.0
6/21 12:40pm 232 8 G 14 96° 20% - - 48° 98.4° 79.7° - - 1005.0
6/21 12:30pm 224 7 G 15 96° 15% - - 40° 98.4° 79.7° - - 1005.0
6/21 12:20pm 221 6 G 10 96° 12% - - 35° 98.4° 79.7° - - 1005.0
6/21 12:10pm 220 5 G 9 96° 12% - - 36° 98.4° 79.7° - - 1005.0
6/21 12:00pm 236 6 G 11 96° 12% - - 36° 98.4° 79.7° - - 1005.0
6/21 11:50am 224 5 G 10 97° 12% - - 35° 98.4° 79.7° - - 1004.0
6/21 11:40am 211 4 G 9 97° 12% - - 36° 98.4° 79.7° - - 1004.0
6/21 11:30am 203 4 G 9 96° 13% - - 36° 97° 79.7° - - 1005.0
6/21 11:20am 224 4 G 8 95° 14% - - 39° 97° 79.7° - - 1005.0
6/21 11:10am 231 3 G 9 95° 15% - - 40° 97° 79.7° - - 1005.0
6/21 11:00am 231 3 G 9 94° 15% - - 39° 95.5° 79.7° - - 1005.0
6/21 10:50am 193 3 G 8 94° 15% - - 39° 95.2° 79.7° - - 1005.0
6/21 10:40am 216 4 G 8 94° 15% - - 39° 94.9° 79.7° - - 1005.0
6/21 10:30am 229 3 G 7 93° 15% - - 38° 94° 79.7° - - 1005.0
6/21 10:20am 231 2 G 5 92° 15% - - 37° 94° 79.7° - - 1005.0
6/21 10:10am 183 3 G 6 93° 15% - - 39° 94° 79.7° - - 1005.0
6/21 10:00am 171 4 G 7 93° 15% - - 38° 93.8° 79.7° - - 1005.0
6/21 9:50am 181 4 G 7 93° 15% - - 39° 93.8° 79.7° - - 1005.0
6/21 9:40am 174 3 G 7 92° 15% - - 38° 93.2° 79.7° - - 1005.0
6/21 9:30am 207 2 G 5 92° 15% - - 37° 92.5° 79.7° - - 1005.0
6/21 9:20am 189 3 G 6 91° 14% - - 36° 91.8° 79.7° - - 1005.0
6/21 9:10am 191 3 G 5 91° 14% - - 35° 91.6° 79.7° - - 1005.0
6/21 9:00am 201 2 G 4 91° 15% - - 36° 91.4° 79.7° - - 1006.0
6/21 8:50am 191 3 G 4 90° 17% - - 39° 90.9° 79.7° - - 1006.0
6/21 8:40am 224 1 G 3 89° 17% - - 38° 90.8° 79.7° - - 1006.0
6/21 8:30am 202 2 G 3 90° 16% - - 38° 90.8° 79.7° - - 1006.0
6/21 8:20am 220 0 G 1 89° 15% - - 35° 90.8° 79.7° - - 1006.0
6/21 8:10am 195 1 G 2 90° 14% - - 34° 90.8° 79.7° - - 1005.0
6/21 8:00am 153 1 G 2 88° 15% - - 35° 89.8° 79.7° - - 1006.0
6/21 7:50am 112 0 G 1 89° 17% - - 39° 89.8° 79.7° - - 1005.0
6/21 7:40am 71 0 G 1 89° 17% - - 38° 89.8° 79.7° - - 1005.0
6/21 7:30am 135 0 G 1 89° 16% - - 36° 89.3° 79.7° - - 1005.0
6/21 7:20am 115 0 G 1 88° 15% - - 35° 88.7° 79.7° - - 1006.0
6/21 7:10am 69 1 G 2 86° 15% - - 33° 87.9° 79.7° - - 1006.0
6/21 7:00am 71 1 G 2 87° 13% - - 31° 87.9° 79.7° - - 1006.0
6/21 6:50am 57 1 G 1 86° 13% - - 30° 87.5° 79.7° - - 1006.0
6/21 6:40am 55 1 G 2 87° 13% - - 30° 87.5° 79.7° - - 1006.0
6/21 6:30am 48 0 G 2 86° 13% - - 30° 86.9° 79.7° - - 1006.0
6/21 6:20am 53 2 G 2 85° 14% - - 30° 86.2° 79.7° - - 1006.0
6/21 6:10am 48 1 G 2 85° 14% - - 30° 86.2° 79.7° - - 1006.0
6/21 6:00am 63 2 G 4 85° 14% - - 31° 85.6° 79.7° - - 1006.0
6/21 5:50am 63 3 G 5 85° 15% - - 32° 85.2° 79.7° - - 1006.0
6/21 5:40am 68 3 G 4 84° 16% - - 33° 85.1° 79.7° - - 1006.0
6/21 5:30am 56 3 G 4 84° 16% - - 33° 85.1° 79.7° - - 1006.0
6/21 5:20am 57 4 G 4 83° 17% - - 34° 85.1° 79.7° - - 1006.0
6/21 5:10am 52 4 G 5 83° 19% - - 36° 85.1° 79.7° - - 1006.0
6/21 5:00am 47 5 G 5 83° 20% - - 38° 85.1° 79.7° - - 1006.0
6/21 4:50am 45 4 G 5 84° 20% - - 38° 85.1° 79.7° - - 1006.0
6/21 4:40am 51 3 G 3 84° 21% - - 40° 85° 79.7° - - 1006.0
6/21 4:30am 48 4 G 5 84° 22% - - 41° 84.9° 79.7° - - 1006.0
6/21 4:20am 45 5 G 6 82° 26% - - 44° 84.4° 79.7° - - 1006.0
6/21 4:10am 43 4 G 5 83° 27% - - 46° 84.4° 79.7° - - 1006.0
6/21 4:00am 53 3 G 4 82° 29% - - 47° 84.3° 79.7° - - 1006.0
6/21 3:50am 44 4 G 5 82° 29% - - 47° 83.6° 79.7° - - 1007.0
6/21 3:40am 36 4 G 6 81° 30% - - 47° 83.6° 79.7° - - 1007.0
6/21 3:30am 34 5 G 6 82° 30% - - 47° 83.6° 79.7° - - 1007.0
6/21 3:20am 30 4 G 5 82° 30% - - 47° 83.6° 79.7° - - 1007.0
6/21 3:10am 27 4 G 5 82° 30% - - 47° 83.6° 79.7° - - 1007.0
6/21 3:00am 35 5 G 5 81° 30% - - 47° 83.6° 79.7° - - 1007.0
6/21 2:50am 38 4 G 5 82° 29% - - 47° 83.6° 79.7° - - 1007.0
6/21 2:40am 34 3 G 4 82° 30% - - 48° 83.6° 79.7° - - 1007.0
6/21 2:30am 41 4 G 5 82° 29% - - 47° 83.6° 79.7° - - 1007.0
6/21 2:20am 44 3 G 4 83° 30% - - 48° 83.6° 79.7° - - 1007.0
6/21 2:10am 42 4 G 5 82° 31% - - 48° 83.6° 79.7° - - 1007.0
6/21 2:00am 38 5 G 6 81° 32% - - 48° 83.6° 79.7° - - 1007.0
6/21 1:50am 39 4 G 5 81° 32% - - 48° 83.6° 80° - - 1007.0
6/21 1:40am 30 4 G 4 81° 32% - - 48° 83.6° 80.5° - - 1008.0
6/21 1:30am 35 4 G 5 81° 32% - - 49° 83.6° 80.5° - - 1008.0
6/21 1:20am 28 3 G 4 81° 32% - - 49° 83.6° 80.6° - - 1008.0
6/21 1:10am 35 3 G 4 82° 32% - - 49° 83.6° 80.6° - - 1008.0
6/21 1:00am 28 1 G 2 82° 32% - - 49° 83.6° 81.7° - - 1008.0
6/21 12:50am 54 0 G 1 83° 31% - - 49° 83.6° 81.7° - - 1008.0
6/21 12:40am 69 1 G 1 83° 31% - - 49° 83.5° 81.7° - - 1008.0
6/21 12:30am 57 1 G 2 83° 31% - - 49° 83.5° 81.7° - - 1008.0
6/21 12:20am 60 2 G 2 83° 31% - - 49° 83.5° 81.7° - - 1008.0
6/21 12:10am 55 2 G 3 82° 32% - - 50° 82.9° 81.7° - - 1008.0
6/21 12:00am 43 2 G 3 82° 34% - - 50° 98° 77.2° - - 1008.0
6/20 11:50pm 36 3 G 4 82° 34% - - 51° 98° 77.2° - - 1008.0
6/20 11:40pm 43 3 G 3 82° 35% - - 51° 98° 77.2° - - 1008.0
6/20 11:30pm 47 2 G 3 82° 35% - - 51° 98° 77.2° - - 1008.0
6/20 11:20pm 46 3 G 3 82° 35% - - 52° 98° 77.2° - - 1008.0
6/20 11:10pm 46 3 G 3 81° 36% - - 52° 98° 77.2° - - 1008.0
6/20 11:00pm 48 2 G 3 82° 36% - - 52° 98° 77.2° - - 1008.0
6/20 10:50pm 55 2 G 3 82° 36% - - 52° 98° 77.2° - - 1008.0
6/20 10:40pm 59 2 G 2 82° 36% - - 52° 98° 77.2° - - 1008.0
6/20 10:30pm 51 2 G 3 82° 36% - - 53° 98° 77.2° - - 1008.0
6/20 10:20pm 86 1 G 1 82° 36% - - 53° 98° 77.2° - - 1008.0
6/20 10:10pm 67 2 G 2 82° 37% - - 53° 98° 77.2° - - 1008.0
6/20 10:00pm 75 2 G 3 82° 37% - - 53° 98° 77.2° - - 1008.0
6/20 9:50pm 71 2 G 3 82° 37% - - 53° 98° 77.2° - - 1008.0
6/20 9:40pm 58 2 G 3 81° 37% - - 53° 98° 77.2° - - 1008.0
6/20 9:30pm 65 2 G 2 81° 37% - - 53° 98° 77.2° - - 1009.0
6/20 9:20pm 66 2 G 3 81° 37% - - 52° 98° 77.2° - - 1009.0
6/20 9:10pm 66 2 G 3 81° 37% - - 53° 98° 77.2° - - 1008.0
6/20 9:00pm 78 2 G 3 81° 37% - - 53° 98° 77.2° - - 1008.0
6/20 8:50pm 75 2 G 2 81° 38% - - 53° 98° 77.2° - - 1008.0
6/20 8:40pm 63 2 G 3 81° 38% - - 54° 98° 77.2° - - 1008.0
6/20 8:30pm 109 1 G 2 82° 37% - - 54° 98° 77.2° - - 1008.0
6/20 8:20pm 81 2 G 3 82° 39% - - 55° 98° 77.2° - - 1008.0
6/20 8:10pm 125 2 G 3 83° 37% - - 54° 98° 77.2° - - 1008.0
6/20 8:00pm 189 1 G 2 84° 36% - - 54° 98° 77.2° - - 1008.0
6/20 7:50pm 184 1 G 3 85° 35% - - 55° 98° 77.2° - - 1007.0
6/20 7:40pm 215 2 G 3 86° 34% - - 54° 98° 77.2° - - 1007.0
6/20 7:30pm 198 2 G 3 87° 33% - - 55° 98° 77.2° - - 1007.0
6/20 7:20pm 241 2 G 3 87° 33% - - 55° 98° 77.2° - - 1007.0
6/20 7:10pm 231 2 G 5 87° 33% - - 54° 98° 77.2° - - 1007.0
6/20 7:00pm 244 3 G 6 88° 32% - - 55° 98° 77.2° - - 1007.0
6/20 6:50pm 264 6 G 9 88° 32% - - 55° 98° 77.2° - - 1007.0
6/20 6:40pm 257 7 G 10 89° 32% - - 55° 98° 77.2° - - 1007.0
6/20 6:30pm 264 6 G 10 89° 32% - - 55° 98° 77.2° - - 1006.0
6/20 6:20pm 264 8 G 12 89° 31% - - 55° 98° 77.2° - - 1006.0
6/20 6:10pm 254 6 G 10 90° 31% - - 56° 98° 77.2° - - 1006.0
6/20 6:00pm 253 7 G 11 91° 30% - - 55° 98° 77.2° - - 1006.0